This is the latest recevied weather packets stored in our database for station/object KD8OZS. If no packets are shown the sender has not sent any weather packets the latest 10 day(s).
| Time | Temp. | Humidity | Pressure | Rain* | Wind** | Luminosity | Snow |
|---|---|---|---|---|---|---|---|
| 1787698176 | 22.22° C | 81% | 1011 hPa | 0 mm | - | 34 W/m² | - |
| 1787697871 | 22.78° C | 81% | 1011.1 hPa | 0 mm | - | 38 W/m² | - |
| 1787697566 | 22.78° C | 80% | 1011 hPa | 0 mm | - | 41 W/m² | - |
| 1787697262 | 22.78° C | 80% | 1010.9 hPa | 0 mm | - | 42 W/m² | - |
| 1787696957 | 23.33° C | 78% | 1010.9 hPa | 0 mm | - | 48 W/m² | - |
| 1787696654 | 23.33° C | 77% | 1011 hPa | 0 mm | - | 63 W/m² | - |
| 1787696348 | 23.33° C | 77% | 1011.1 hPa | 0 mm | - | 75 W/m² | - |
| 1787696043 | 23.33° C | 77% | 1011.1 hPa | 0 mm | - | 78 W/m² | - |
| 1787695737 | 23.33° C | 77% | 1011.1 hPa | 0 mm | - | 65 W/m² | - |
| 1787695434 | 23.89° C | 76% | 1011.2 hPa | 0 mm | - | 59 W/m² | - |
| 1787695128 | 24.44° C | 73% | 1011 hPa | 0 mm | - | 70 W/m² | - |
| 1787694827 | 25° C | 67% | 1011 hPa | 0 mm | - | 65 W/m² | - |
| 1787694523 | 26.11° C | 63% | 1010.9 hPa | 0 mm | - | 62 W/m² | - |
| 1787694222 | 26.67° C | 60% | 1010.9 hPa | 0 mm | - | 81 W/m² | - |
| 1787693918 | 27.22° C | 56% | 1011 hPa | 0 mm | - | 131 W/m² | - |
| 1787693613 | 28.33° C | 55% | 1011 hPa | 0 mm | - | 309 W/m² | - |
| 1787693310 | 26.67° C | 56% | 1011.2 hPa | 0 mm | - | 323 W/m² | - |
| 1787693005 | 27.22° C | 58% | 1011.1 hPa | 0 mm | - | 301 W/m² | - |
| 1787692701 | 27.22° C | 58% | 1011 hPa | 0 mm | - | 324 W/m² | - |
| 1787692396 | 27.78° C | 56% | 1011.1 hPa | 0 mm | - | 353 W/m² | - |
| 1787692090 | 26.67° C | 58% | 1011 hPa | 0 mm | - | 379 W/m² | - |
| 1787691789 | 27.22° C | 59% | 1011.2 hPa | 0 mm | - | 393 W/m² | - |
| 1787691488 | 26.67° C | 60% | 1011.1 hPa | 0 mm | - | 399 W/m² | - |
| 1787691182 | 26.67° C | 58% | 1011.4 hPa | 0 mm | - | 355 W/m² | - |
| 1787690877 | 26.67° C | 55% | 1011.1 hPa | 0 mm | - | 393 W/m² | - |
* Rain latest hour (hover to see other rain measurements)
** Current wind speed in m/s (hover to see current wind gust speed)